Boxborough, MA (01719)

8:03 PM EDT on October 24, 2014 (GMT -0400)
Liberty Square Road | Change Station
CLOSE
Current Station
Personal Weather Station
Location: Boxborough, MA
Elevation: 72 ft
Nearby Weather Stations

Elev 72 ft 42.50 °N, 71.51 °W | Updated 3 minutes ago

Overcast
Overcast
49.8 °F
Feels Like 50 °F
N
3.0
Wind Variable Wind from SSW
Gusts 6.0 mph

Today
High -- | Low -- °F
--% Chance of Precip.
Yesterday
High -- | Low -- °F
Precip. -- in
7:09 AM 5:50 PM
New Moon, 1% visible
Pressure 29.77 in
Visibility 10.0 miles
Clouds Overcast 2700 ft
Windchill 50 °F
Dew Point 43 °F
Humidity 78%
Rainfall 0.08 in
Snow Depth Not available.
UV 0.0 out of 12
Pollen .30 out of 12
Air Quality Not available.
Flu Activity Sporadic
METAR KBED 242356Z 31004KT 10SM OVC027 09/06 A2973 RMK AO2 SLP080 T00940061 10117 20094 53011

More Conditions Fewer Conditions

Pressure 29.77 in
Visibility 10.0 miles
Clouds Overcast 2700 ft
Windchill 50 °F
Dew Point 43 °F
Humidity 78%
Rainfall 0.08 in
Snow Depth Not available.
UV 0.0 out of 12
Pollen .30 out of 12
Air Quality Not available.
Flu Activity Sporadic
METAR KBED 242356Z 31004KT 10SM OVC027 09/06 A2973 RMK AO2 SLP080 T00940061 10117 20094 53011

More Conditions Fewer Conditions

10-Day Weather Forecast

Almanac

Astronomy

Oct. 24, 2014 Rise Set
Actual Time 7:09 AM EDT 5:50 PM EDT
Civil Twilight 6:40 AM EDT 6:18 PM EDT
Nautical Twilight 6:08 AM EDT 6:51 PM EDT
Astronomical Twilight 5:35 AM EDT 7:24 PM EDT
Moon 7:46 AM EDT (10/24) 6:27 PM EDT (10/24)
Length of Visible Light 11h 37m
Length of Day
10h 40m
Tomorrow will be 2m 40s shorter.
New Moon, 1% of the Moon is Illuminated
Today
New Moon
Oct 30
First Quarter
Nov 6
Full
Nov 14
Last Quarter
Nov 22
New

Today's Extremes

State Highs State Lows

Community

WunderPhotos

Upload Photos

1,764,721 photos uploaded!

Nearby

Air Quality

  Air Quality AQ Index Pollutant
Friday Good
PM2.5
Friday Good
OZONE
Saturday Good
PM2.5
Saturday Good
OZONE

Snow Depth

Station Depth Elevation
No new snow has been reported.

Earthquake Activity

City Distance Mag. Time & Date
No recent earthquake activity has been reported nearby.
Minimum magnitude displayed is 2.5.

Coastal Water Temperatures

Place Temperature
Boston, MA 54.0 °F
Providence, RI 61.0 °F
Fall River, MA 60.1 °F
Conimicut Light, RI 60.1 °F

Nearby Weather Stations